Buzuluk, Russia
Current Conditions -  °F | °C
As of 1:30 PM on Monday 26 Jan 2015 (Local Time) from UWWW Reporting Station
Clear Clear  
Wind Chill: -16°   Ceiling: Unl
Heat Index:   Visibility: 6mi
Dew Point: -6°   Wind: 9mph
Humidity: 78%   Direction: 150°SSE
Pressure: 30.74"   Gusts: NA
Location:  52.78°N, 52.26°E
Report Text: UWWW 260830Z 15004MPS CAVOK M18/M21 Q1041 23820545 15//99//NOSIG RMK QFE769/1026
Loading
Personal Weather Stations






























Interactive Weather Map New forecast layout! Learn more

10-Day Weather Forecast

Advertisements
Track Severe Weather on mobile